createdAt,value
2019-04-28T00:01:25.260Z,50.33
2019-04-28T00:03:54.522Z,50.55
2019-04-28T00:06:23.882Z,50.68
2019-04-28T00:08:53.168Z,50.81
2019-04-28T00:11:22.572Z,50.98
2019-04-28T00:13:53.638Z,51.14
2019-04-28T00:16:23.345Z,51.38
2019-04-28T00:18:53.292Z,51.52
2019-04-28T00:21:29.342Z,51.63
2019-04-28T00:24:17.641Z,51.78
2019-04-28T00:26:55.038Z,51.85
2019-04-28T00:29:37.308Z,51.97
2019-04-28T00:31:55.464Z,52.09
2019-04-28T00:34:24.742Z,52.34
2019-04-28T00:37:02.514Z,52.54
2019-04-28T00:39:31.979Z,52.73
2019-04-28T00:42:03.093Z,52.87
2019-04-28T00:44:32.562Z,52.98
2019-04-28T00:47:01.852Z,53.07
2019-04-28T00:49:49.258Z,53.22
2019-04-28T00:52:21.876Z,53.34
2019-04-28T00:54:52.679Z,53.38
2019-04-28T00:57:22.108Z,53.65
2019-04-28T00:59:57.963Z,53.92
2019-04-28T01:02:47.996Z,54.09
2019-04-28T01:05:17.474Z,54.22
2019-04-28T01:07:46.744Z,54.29
2019-04-28T01:10:16.387Z,54.38
2019-04-28T01:12:46.738Z,54.56
2019-04-28T01:15:32.051Z,54.85
2019-04-28T01:18:26.809Z,54.96
2019-04-28T01:20:56.060Z,54.97
2019-04-28T01:23:25.300Z,55.06
2019-04-28T01:25:54.570Z,55.42
2019-04-28T01:28:23.824Z,55.62
2019-04-28T01:31:27.326Z,55.70
2019-04-28T01:34:20.618Z,55.94
2019-04-28T01:36:51.602Z,55.88
2019-04-28T01:39:21.427Z,55.93
2019-04-28T01:41:50.914Z,56.22
2019-04-28T01:44:20.229Z,56.45
2019-04-28T01:46:49.740Z,56.57
2019-04-28T01:49:19.715Z,56.64
2019-04-28T01:52:00.827Z,56.81
2019-04-28T01:54:30.540Z,56.94
2019-04-28T01:57:01.356Z,57.08
2019-04-28T01:59:30.783Z,57.29
2019-04-28T02:02:00.319Z,57.45
2019-04-28T02:04:32.305Z,57.66
2019-04-28T02:07:00.931Z,57.82
2019-04-28T02:09:30.172Z,57.87
2019-04-28T02:12:00.819Z,58.03
2019-04-28T02:14:30.933Z,58.15
2019-04-28T02:17:00.591Z,58.11
2019-04-28T02:19:33.045Z,58.16
2019-04-28T02:22:14.715Z,58.28
2019-04-28T02:24:43.970Z,58.43
2019-04-28T02:27:13.204Z,58.61
2019-04-28T02:29:42.476Z,58.76
2019-04-28T02:32:13.106Z,58.88
2019-04-28T02:34:42.331Z,58.99
2019-04-28T02:37:11.945Z,59.13
2019-04-28T02:39:41.437Z,59.24
2019-04-28T02:42:11.285Z,59.31
2019-04-28T02:44:40.908Z,59.42
2019-04-28T02:47:11.159Z,59.50
2019-04-28T02:49:50.936Z,59.60
2019-04-28T02:52:38.171Z,59.79
2019-04-28T02:55:07.807Z,59.89
2019-04-28T02:57:37.065Z,60.03
2019-04-28T03:00:10.100Z,60.29
2019-04-28T03:02:41.111Z,60.48
2019-04-28T03:05:11.613Z,60.63
2019-04-28T03:07:41.165Z,60.76
2019-04-28T03:10:11.304Z,60.86
2019-04-28T03:12:41.634Z,60.96
2019-04-28T03:15:11.065Z,61.03
2019-04-28T03:17:41.023Z,61.18
2019-04-28T03:20:11.222Z,61.33
2019-04-28T03:22:41.153Z,61.40
2019-04-28T03:25:16.855Z,61.47
2019-04-28T03:28:05.090Z,61.62
2019-04-28T03:31:40.631Z,61.75
2019-04-28T03:33:47.188Z,61.70
2019-04-28T03:36:15.617Z,61.52
2019-04-28T03:38:41.389Z,61.63
2019-04-28T03:41:11.303Z,61.73
2019-04-28T03:43:40.909Z,61.86
2019-04-28T03:46:15.487Z,61.94
2019-04-28T03:48:46.388Z,61.94
2019-04-28T03:51:15.644Z,61.93
2019-04-28T03:53:44.925Z,61.91
2019-04-28T03:56:14.296Z,61.97
2019-04-28T03:58:43.557Z,62.05
2019-04-28T04:01:12.860Z,62.08
2019-04-28T04:03:42.461Z,62.08
2019-04-28T04:06:11.699Z,62.07
2019-04-28T04:08:41.090Z,62.00
2019-04-28T04:11:15.920Z,61.96
2019-04-28T04:13:53.123Z,61.99
2019-04-28T04:16:53.618Z,61.92
2019-04-28T04:19:23.082Z,61.83
2019-04-28T04:21:52.703Z,61.65
2019-04-28T04:24:22.458Z,61.76
2019-04-28T04:26:51.764Z,61.82
2019-04-28T04:29:21.693Z,61.91
2019-04-28T04:31:51.408Z,61.88
2019-04-28T04:34:20.966Z,61.89
2019-04-28T04:36:50.981Z,61.93
2019-04-28T04:39:20.738Z,61.92
2019-04-28T04:41:50.587Z,61.89
2019-04-28T04:44:21.068Z,61.88
2019-04-28T04:46:50.962Z,61.92
2019-04-28T04:49:21.518Z,61.92
2019-04-28T04:51:51.138Z,61.90
2019-04-28T04:54:20.597Z,61.91
2019-04-28T04:56:50.194Z,61.86
2019-04-28T04:59:20.283Z,61.84
2019-04-28T05:02:07.232Z,61.86
2019-04-28T05:05:00.317Z,61.89
2019-04-28T05:07:29.758Z,61.82
2019-04-28T05:09:59.599Z,61.80
2019-04-28T05:12:30.626Z,61.88
2019-04-28T05:15:00.559Z,61.93
2019-04-28T05:17:30.240Z,61.92
2019-04-28T05:20:01.354Z,61.90
2019-04-28T05:22:32.337Z,61.96
2019-04-28T05:25:15.627Z,61.93
2019-04-28T05:27:45.075Z,61.92
2019-04-28T05:30:14.316Z,61.82
2019-04-28T05:32:49.599Z,61.78
2019-04-28T05:35:17.434Z,61.70
2019-04-28T05:37:45.993Z,61.63
2019-04-28T05:40:15.224Z,61.58
2019-04-28T05:43:00.469Z,61.45
2019-04-28T05:45:32.357Z,61.26
2019-04-28T05:48:01.970Z,61.11
2019-04-28T05:50:53.110Z,61.01
2019-04-28T05:53:53.603Z,61.06
2019-04-28T05:56:33.857Z,60.85
2019-04-28T05:59:13.679Z,60.68
2019-04-28T06:01:58.086Z,60.50
2019-04-28T06:04:30.526Z,60.59
2019-04-28T06:07:16.934Z,60.36
2019-04-28T06:09:50.123Z,60.27
2019-04-28T06:12:20.170Z,60.15
2019-04-28T06:14:50.301Z,60.14
2019-04-28T06:17:20.748Z,60.12
2019-04-28T06:19:50.520Z,60.09
2019-04-28T06:22:20.281Z,60.08
2019-04-28T06:24:49.518Z,60.04
2019-04-28T06:27:18.758Z,60.05
2019-04-28T06:29:47.995Z,60.00
2019-04-28T06:32:17.286Z,60.00
2019-04-28T06:34:46.533Z,59.86
2019-04-28T06:37:15.946Z,59.74
2019-04-28T06:39:47.324Z,59.50
2019-04-28T06:42:16.184Z,59.26
2019-04-28T06:44:45.433Z,59.26
2019-04-28T06:47:16.753Z,59.07
2019-04-28T06:49:45.731Z,58.69
2019-04-28T06:52:15.167Z,58.65
2019-04-28T06:54:44.498Z,58.58
2019-04-28T06:57:14.087Z,58.41
2019-04-28T06:59:43.354Z,58.09
2019-04-28T07:02:12.661Z,57.90
2019-04-28T07:04:41.859Z,57.79
2019-04-28T07:07:11.135Z,58.04
2019-04-28T07:09:40.466Z,58.43
2019-04-28T07:12:09.706Z,58.81
2019-04-28T07:14:38.963Z,58.57
2019-04-28T07:17:08.266Z,57.57
2019-04-28T07:19:37.822Z,56.23
2019-04-28T07:22:21.693Z,54.89
2019-04-28T07:24:50.934Z,53.87
2019-04-28T07:27:20.191Z,52.98
2019-04-28T07:29:49.461Z,52.27
2019-04-28T07:32:18.699Z,51.19
2019-04-28T07:34:47.936Z,50.57
2019-04-28T07:37:17.342Z,50.12
2019-04-28T07:39:46.577Z,49.43
2019-04-28T07:42:15.810Z,48.62
2019-04-28T07:44:45.181Z,47.94
2019-04-28T07:47:14.441Z,47.42
2019-04-28T07:49:43.701Z,46.72
2019-04-28T07:52:18.245Z,46.43
2019-04-28T07:54:47.587Z,46.31
2019-04-28T07:57:16.826Z,46.07
2019-04-28T07:59:46.083Z,45.75
2019-04-28T08:02:15.389Z,45.53
2019-04-28T08:04:44.620Z,45.22
2019-04-28T08:07:13.890Z,45.01
2019-04-28T08:09:43.118Z,44.69
2019-04-28T08:12:12.348Z,44.51
2019-04-28T08:14:41.652Z,44.26
2019-04-28T08:17:10.886Z,43.81
2019-04-28T08:19:40.123Z,43.24
2019-04-28T08:22:09.450Z,42.87
2019-04-28T08:24:38.716Z,42.25
2019-04-28T08:27:08.423Z,41.68
2019-04-28T08:29:37.715Z,41.46
2019-04-28T08:32:21.388Z,41.23
2019-04-28T08:34:50.684Z,40.83
2019-04-28T08:37:20.125Z,40.83
2019-04-28T08:39:49.534Z,40.46
2019-04-28T08:42:18.832Z,40.20
2019-04-28T08:44:48.158Z,39.62
2019-04-28T08:47:17.427Z,38.85
2019-04-28T08:49:46.722Z,38.53
2019-04-28T08:52:16.045Z,38.24
2019-04-28T08:54:45.366Z,38.33
2019-04-28T08:57:14.753Z,37.96
2019-04-28T08:59:44.002Z,38.04
2019-04-28T09:02:13.287Z,38.45
2019-04-28T09:04:42.601Z,38.11
2019-04-28T09:07:11.971Z,37.98
2019-04-28T09:09:41.190Z,37.97
2019-04-28T09:12:10.487Z,38.07
2019-04-28T09:14:39.734Z,37.60
2019-04-28T09:17:09.004Z,37.90
2019-04-28T09:19:38.301Z,38.38
2019-04-28T09:22:07.701Z,38.06
2019-04-28T09:24:36.990Z,37.87
2019-04-28T09:27:06.234Z,37.97
2019-04-28T09:29:35.473Z,37.48
2019-04-28T09:32:04.989Z,37.87
2019-04-28T09:34:34.298Z,38.13
2019-04-28T09:37:03.627Z,38.30
2019-04-28T09:39:52.204Z,38.67
2019-04-28T09:42:55.477Z,38.22
2019-04-28T09:45:27.787Z,37.57
2019-04-28T09:47:57.161Z,37.43
2019-04-28T09:50:26.417Z,37.08
2019-04-28T09:52:55.705Z,37.04
2019-04-28T09:55:24.955Z,37.18
2019-04-28T09:57:54.911Z,36.52
2019-04-28T10:00:24.553Z,36.29
2019-04-28T10:02:53.793Z,35.88
2019-04-28T10:05:23.054Z,35.66
2019-04-28T10:07:52.406Z,35.64
2019-04-28T10:10:21.713Z,35.46
2019-04-28T10:12:50.944Z,35.62
2019-04-28T10:15:20.417Z,35.63
2019-04-28T10:17:49.697Z,35.54
2019-04-28T10:20:19.855Z,35.44
2019-04-28T10:22:50.182Z,35.36
2019-04-28T10:25:21.156Z,35.28
2019-04-28T10:27:50.517Z,35.23
2019-04-28T10:30:19.854Z,35.21
2019-04-28T10:32:49.134Z,35.07
2019-04-28T10:35:18.416Z,35.02
2019-04-28T10:37:47.661Z,34.62
2019-04-28T10:40:33.266Z,34.31
2019-04-28T10:43:02.519Z,34.49
2019-04-28T10:45:33.432Z,34.34
2019-04-28T10:48:02.747Z,34.37
2019-04-28T10:50:32.418Z,34.59
2019-04-28T10:53:01.657Z,34.24
2019-04-28T10:55:31.013Z,34.05
2019-04-28T10:58:00.320Z,33.90
2019-04-28T11:00:31.203Z,33.92
2019-04-28T11:03:00.594Z,33.75
2019-04-28T11:05:38.858Z,33.39
2019-04-28T11:08:12.499Z,33.01
2019-04-28T11:10:41.776Z,32.93
2019-04-28T11:13:11.192Z,32.87
2019-04-28T11:15:40.472Z,32.69
2019-04-28T11:18:11.653Z,32.78
2019-04-28T11:20:40.912Z,32.75
2019-04-28T11:23:10.203Z,32.88
2019-04-28T11:25:39.445Z,32.76
2019-04-28T11:28:09.259Z,32.98
2019-04-28T11:30:38.543Z,33.19
2019-04-28T11:33:14.998Z,33.17
2019-04-28T11:35:44.500Z,33.24
2019-04-28T11:38:13.974Z,33.24
2019-04-28T11:40:43.461Z,32.91
2019-04-28T11:43:13.029Z,32.79
2019-04-28T11:45:42.264Z,32.74
2019-04-28T11:48:11.566Z,32.80
2019-04-28T11:50:40.870Z,32.98
2019-04-28T11:53:10.138Z,32.95
2019-04-28T11:55:39.409Z,33.04
2019-04-28T11:58:08.878Z,32.92
2019-04-28T12:00:38.701Z,33.06
2019-04-28T12:03:07.954Z,33.13
2019-04-28T12:05:46.634Z,33.00
2019-04-28T12:08:15.871Z,33.03
2019-04-28T12:10:50.649Z,33.00
2019-04-28T12:13:38.817Z,32.76
2019-04-28T12:16:38.014Z,32.44
2019-04-28T12:19:12.282Z,32.79
2019-04-28T12:21:41.551Z,32.84
2019-04-28T12:24:10.800Z,33.24
2019-04-28T12:26:40.046Z,32.80
2019-04-28T12:29:09.464Z,32.72
2019-04-28T12:31:38.694Z,32.53
2019-04-28T12:34:07.932Z,32.69
2019-04-28T12:36:37.213Z,32.83
2019-04-28T12:39:08.759Z,33.33
2019-04-28T12:41:38.233Z,33.51
2019-04-28T12:44:07.559Z,33.36
2019-04-28T12:46:36.820Z,33.02
2019-04-28T12:49:15.429Z,32.82
2019-04-28T12:51:44.662Z,32.61
2019-04-28T12:54:16.024Z,32.49
2019-04-28T12:56:45.311Z,32.70
2019-04-28T12:59:19.897Z,32.78
2019-04-28T13:02:23.111Z,32.76
2019-04-28T13:04:55.418Z,32.89
2019-04-28T13:07:24.736Z,32.89
2019-04-28T13:09:54.031Z,32.96
2019-04-28T13:12:23.552Z,32.70
2019-04-28T13:14:52.787Z,32.86
2019-04-28T13:17:22.097Z,32.50
2019-04-28T13:19:51.329Z,32.28
2019-04-28T13:22:20.661Z,32.21
2019-04-28T13:24:50.100Z,32.27
2019-04-28T13:27:19.357Z,31.94
2019-04-28T13:29:48.831Z,31.93
2019-04-28T13:32:18.128Z,31.70
2019-04-28T13:34:47.363Z,31.60
2019-04-28T13:37:16.673Z,31.66
2019-04-28T13:39:54.259Z,31.51
2019-04-28T13:42:23.490Z,31.82
2019-04-28T13:44:57.248Z,32.02
2019-04-28T13:47:26.659Z,31.73
2019-04-28T13:49:59.407Z,30.98
2019-04-28T13:52:28.660Z,31.26
2019-04-28T13:55:12.724Z,31.09
2019-04-28T13:57:42.409Z,30.99
2019-04-28T14:00:14.162Z,30.98
2019-04-28T14:03:07.354Z,31.03
2019-04-28T14:05:53.612Z,30.80
2019-04-28T14:08:23.045Z,31.08
2019-04-28T14:10:52.296Z,31.51
2019-04-28T14:13:21.589Z,31.66
2019-04-28T14:15:50.873Z,31.26
2019-04-28T14:18:20.168Z,30.80
2019-04-28T14:20:49.418Z,30.43
2019-04-28T14:23:18.806Z,30.07
2019-04-28T14:25:48.403Z,29.96
2019-04-28T14:28:17.680Z,30.13
2019-04-28T14:30:46.933Z,29.87
2019-04-28T14:33:16.637Z,29.62
2019-04-28T14:35:46.324Z,29.15
2019-04-28T14:38:16.267Z,28.75
2019-04-28T14:40:45.682Z,28.25
2019-04-28T14:43:14.932Z,28.36
2019-04-28T14:45:44.257Z,28.02
2019-04-28T14:48:13.590Z,27.88
2019-04-28T14:50:42.781Z,27.45
2019-04-28T14:53:12.185Z,27.55
2019-04-28T14:55:41.410Z,27.63
2019-04-28T14:58:10.652Z,27.43
2019-04-28T15:00:44.808Z,26.99
2019-04-28T15:03:15.099Z,27.36
2019-04-28T15:05:59.982Z,27.21
2019-04-28T15:08:46.510Z,27.26
2019-04-28T15:11:29.587Z,27.60
2019-04-28T15:13:58.918Z,27.47
2019-04-28T15:16:28.199Z,27.45
2019-04-28T15:18:57.488Z,27.69
2019-04-28T15:21:27.007Z,27.84
2019-04-28T15:23:56.417Z,27.77
2019-04-28T15:26:25.818Z,27.81
2019-04-28T15:28:55.065Z,27.73
2019-04-28T15:31:24.433Z,27.40
2019-04-28T15:33:54.054Z,27.39
2019-04-28T15:36:23.303Z,27.31
2019-04-28T15:38:52.556Z,27.29
2019-04-28T15:41:22.298Z,27.05
2019-04-28T15:43:53.455Z,26.72
2019-04-28T15:46:22.691Z,26.36
2019-04-28T15:48:52.049Z,26.07
2019-04-28T15:51:21.255Z,25.66
2019-04-28T15:53:51.630Z,25.55
2019-04-28T15:56:47.373Z,25.22
2019-04-28T15:59:17.265Z,24.84
2019-04-28T16:01:46.517Z,24.94
2019-04-28T16:04:18.579Z,25.22
2019-04-28T16:06:48.905Z,25.15
2019-04-28T16:09:18.138Z,24.98
2019-04-28T16:11:47.568Z,24.73
2019-04-28T16:14:16.838Z,24.48
2019-04-28T16:16:46.147Z,24.52
2019-04-28T16:19:15.406Z,24.54
2019-04-28T16:21:44.769Z,24.32
2019-04-28T16:24:14.662Z,23.96
2019-04-28T16:26:44.007Z,23.89
2019-04-28T16:29:13.352Z,23.94
2019-04-28T16:31:42.607Z,24.13
2019-04-28T16:34:11.881Z,23.86
2019-04-28T16:36:41.112Z,23.46
2019-04-28T16:39:12.410Z,23.35
2019-04-28T16:41:58.305Z,23.55
2019-04-28T16:44:40.462Z,23.71
2019-04-28T16:47:09.863Z,23.75
2019-04-28T16:49:39.155Z,23.69
2019-04-28T16:52:08.499Z,23.43
2019-04-28T16:54:39.839Z,23.38
2019-04-28T16:57:15.323Z,23.22
2019-04-28T16:59:57.203Z,23.36
2019-04-28T17:02:29.221Z,23.30
2019-04-28T17:04:58.452Z,23.38
2019-04-28T17:07:27.760Z,23.66
2019-04-28T17:09:57.001Z,23.90
2019-04-28T17:12:27.482Z,24.26
2019-04-28T17:14:56.951Z,24.51
2019-04-28T17:17:26.392Z,24.53
2019-04-28T17:19:55.685Z,24.76
2019-04-28T17:22:25.094Z,25.45
2019-04-28T17:24:54.330Z,25.45
2019-04-28T17:27:23.864Z,25.86
2019-04-28T17:29:53.133Z,26.46
2019-04-28T17:32:22.458Z,26.86
2019-04-28T17:34:51.703Z,27.07
2019-04-28T17:37:21.070Z,27.26
2019-04-28T17:39:50.326Z,27.65
2019-04-28T17:42:19.705Z,27.94
2019-04-28T17:44:49.446Z,28.19
2019-04-28T17:47:19.567Z,28.48
2019-04-28T17:49:48.810Z,28.77
2019-04-28T17:52:18.339Z,29.10
2019-04-28T17:54:47.583Z,29.49
2019-04-28T17:57:16.830Z,29.81
2019-04-28T17:59:47.895Z,30.01
2019-04-28T18:02:49.622Z,30.22
2019-04-28T18:05:41.816Z,30.46
2019-04-28T18:08:20.893Z,30.72
2019-04-28T18:10:42.169Z,30.85
2019-04-28T18:13:11.617Z,31.06
2019-04-28T18:15:58.775Z,31.25
2019-04-28T18:18:37.870Z,31.41
2019-04-28T18:25:00.287Z,31.99
2019-04-28T18:27:29.791Z,32.17
2019-04-28T18:32:15.900Z,33.97
2019-04-28T18:34:50.502Z,33.78
2019-04-28T18:37:41.578Z,33.91
2019-04-28T18:40:44.993Z,34.20
2019-04-28T18:43:24.822Z,34.29
2019-04-28T18:45:54.050Z,34.48
2019-04-28T18:48:23.304Z,34.83
2019-04-28T18:50:52.664Z,35.13
2019-04-28T18:53:21.983Z,35.49
2019-04-28T18:55:51.277Z,35.86
2019-04-28T18:58:20.563Z,36.24
2019-04-28T19:01:04.556Z,36.61
2019-04-28T19:03:33.828Z,37.00
2019-04-28T19:06:04.145Z,37.20
2019-04-28T19:08:49.383Z,37.59
2019-04-28T19:11:37.402Z,38.02
2019-04-28T19:14:20.220Z,38.37
2019-04-28T19:17:26.716Z,38.65
2019-04-28T19:19:56.236Z,38.91
2019-04-28T19:22:25.491Z,39.01
2019-04-28T19:24:54.753Z,39.32
2019-04-28T19:27:24.125Z,39.56
2019-04-28T19:29:53.705Z,39.87
2019-04-28T19:32:23.065Z,40.11
2019-04-28T19:34:52.425Z,40.39
2019-04-28T19:37:21.919Z,40.52
2019-04-28T19:39:51.213Z,40.66
2019-04-28T19:42:20.468Z,40.82
2019-04-28T19:44:49.707Z,40.97
2019-04-28T19:47:18.944Z,41.12
2019-04-28T19:49:48.318Z,41.45
2019-04-28T19:52:17.613Z,41.64
2019-04-28T19:55:21.071Z,41.85
2019-04-28T19:58:00.370Z,42.15
2019-04-28T20:00:34.965Z,42.16
2019-04-28T20:03:04.199Z,42.38
2019-04-28T20:05:33.516Z,42.66
2019-04-28T20:08:03.631Z,42.82
2019-04-28T20:10:33.259Z,42.97
2019-04-28T20:13:02.586Z,43.11
2019-04-28T20:15:32.031Z,43.22
2019-04-28T20:18:01.606Z,43.31
2019-04-28T20:20:31.163Z,43.39
2019-04-28T20:23:00.591Z,43.48
2019-04-28T20:25:29.935Z,43.55
2019-04-28T20:27:59.154Z,43.61
2019-04-28T20:30:28.848Z,43.65
2019-04-28T20:33:06.887Z,43.75
2019-04-28T20:35:32.627Z,43.79
2019-04-28T20:38:20.877Z,43.78
2019-04-28T20:40:59.974Z,43.83
2019-04-28T20:43:29.326Z,43.81
2019-04-28T20:45:58.591Z,43.84
2019-04-28T20:48:27.920Z,43.96
2019-04-28T20:50:57.324Z,44.06
2019-04-28T20:53:26.841Z,44.13
2019-04-28T20:55:56.141Z,44.22
2019-04-28T20:58:25.341Z,44.17
2019-04-28T21:00:54.626Z,44.20
2019-04-28T21:03:23.948Z,44.33
2019-04-28T21:05:53.203Z,44.44
2019-04-28T21:08:22.733Z,44.46
2019-04-28T21:10:53.174Z,44.64
2019-04-28T21:13:22.596Z,44.89
2019-04-28T21:15:51.939Z,44.98
2019-04-28T21:18:21.529Z,45.05
2019-04-28T21:20:50.835Z,45.14
2019-04-28T21:23:20.170Z,45.25
2019-04-28T21:25:49.726Z,45.31
2019-04-28T21:28:19.036Z,45.37
2019-04-28T21:30:48.505Z,45.48
2019-04-28T21:33:17.895Z,45.60
2019-04-28T21:35:47.201Z,45.67
2019-04-28T21:38:16.445Z,45.79
2019-04-28T21:40:45.769Z,45.98
2019-04-28T21:43:20.978Z,46.07
2019-04-28T21:46:03.452Z,46.14
2019-04-28T21:48:43.722Z,46.24
2019-04-28T21:51:13.085Z,46.22
2019-04-28T21:53:44.353Z,46.29
2019-04-28T21:56:13.793Z,46.46
2019-04-28T21:58:43.072Z,46.61
2019-04-28T22:01:15.701Z,46.77
2019-04-28T22:03:45.068Z,46.91
2019-04-28T22:06:14.835Z,47.02
2019-04-28T22:08:44.160Z,47.12
2019-04-28T22:11:13.465Z,47.27
2019-04-28T22:13:42.975Z,47.45
2019-04-28T22:16:13.505Z,47.45
2019-04-28T22:18:42.731Z,47.54
2019-04-28T22:21:12.090Z,47.52
2019-04-28T22:24:00.248Z,47.63
2019-04-28T22:26:52.709Z,47.67
2019-04-28T22:29:22.358Z,47.68
2019-04-28T22:31:51.819Z,47.72
2019-04-28T22:34:21.123Z,48.00
2019-04-28T22:36:50.436Z,48.12
2019-04-28T22:39:19.665Z,48.25
2019-04-28T22:41:49.025Z,48.38
2019-04-28T22:44:18.279Z,48.45
2019-04-28T22:46:47.496Z,48.67
2019-04-28T22:49:16.759Z,48.79
2019-04-28T22:51:46.008Z,48.87
2019-04-28T22:54:24.498Z,48.98
2019-04-28T22:57:00.388Z,49.09
2019-04-28T22:59:33.497Z,49.08
2019-04-28T23:02:21.774Z,49.22
2019-04-28T23:04:56.587Z,49.31
2019-04-28T23:07:25.810Z,49.31
2019-04-28T23:09:55.052Z,49.38
2019-04-28T23:12:24.330Z,49.46
2019-04-28T23:14:53.706Z,49.58
2019-04-28T23:17:23.109Z,49.62
2019-04-28T23:19:52.376Z,49.65
2019-04-28T23:22:47.132Z,49.79
2019-04-28T23:25:13.957Z,49.83
2019-04-28T23:27:43.205Z,49.79
2019-04-28T23:30:12.855Z,49.99
2019-04-28T23:32:42.372Z,50.17
2019-04-28T23:35:12.116Z,50.31
2019-04-28T23:37:41.933Z,50.43
2019-04-28T23:40:13.169Z,50.45
2019-04-28T23:42:52.234Z,50.52
2019-04-28T23:45:21.755Z,50.58
2019-04-28T23:47:51.001Z,50.69
2019-04-28T23:50:27.432Z,50.79
2019-04-28T23:53:01.753Z,50.86
2019-04-28T23:55:31.002Z,50.98
2019-04-28T23:58:00.253Z,51.13
